createdAt,value
2022-11-10T00:01:08.890Z,38.13
2022-11-10T00:03:58.090Z,40.42
2022-11-10T00:06:44.762Z,40.08
2022-11-10T00:09:30.490Z,36.47
2022-11-10T00:12:16.235Z,39.03
2022-11-10T00:15:20.809Z,36.80
2022-11-10T00:18:06.126Z,35.88
2022-11-10T00:20:52.084Z,36.92
2022-11-10T00:23:37.609Z,36.05
2022-11-10T00:26:23.358Z,35.50
2022-11-10T00:29:08.949Z,75.40
2022-11-10T00:31:54.528Z,52.40
2022-11-10T00:34:40.150Z,42.28
2022-11-10T00:37:25.729Z,38.22
2022-11-10T00:40:14.365Z,38.95
2022-11-10T00:43:00.095Z,43.58
2022-11-10T00:45:47.309Z,37.50
2022-11-10T00:48:32.969Z,41.33
2022-11-10T00:51:24.396Z,41.08
2022-11-10T00:54:10.803Z,38.25
2022-11-10T00:56:56.093Z,36.70
2022-11-10T00:59:41.927Z,36.72
2022-11-10T01:02:28.513Z,37.13
2022-11-10T01:05:14.379Z,45.40
2022-11-10T01:08:00.674Z,39.40
2022-11-10T01:10:46.149Z,38.30
2022-11-10T01:13:32.346Z,39.05
2022-11-10T01:16:25.003Z,37.78
2022-11-10T01:19:10.586Z,37.20
2022-11-10T01:21:56.609Z,36.30
2022-11-10T01:24:42.181Z,35.55
2022-11-10T01:27:27.945Z,36.08
2022-11-10T01:30:13.576Z,38.78
2022-11-10T01:32:59.274Z,36.60
2022-11-10T01:35:46.022Z,36.47
2022-11-10T01:38:35.563Z,37.97
2022-11-10T01:41:21.078Z,38.67
2022-11-10T01:44:23.859Z,37.70
2022-11-10T01:47:09.387Z,39.50
2022-11-10T01:49:55.357Z,36.83
2022-11-10T01:52:43.920Z,37.90
2022-11-10T01:55:31.107Z,37.05
2022-11-10T01:58:20.922Z,37.75
2022-11-10T02:01:08.530Z,38.08
2022-11-10T02:03:58.990Z,40.45
2022-11-10T02:06:47.543Z,40.47
2022-11-10T02:09:33.491Z,38.97
2022-11-10T02:12:36.940Z,39.88
2022-11-10T02:15:23.344Z,39.20
2022-11-10T02:18:08.966Z,39.30
2022-11-10T02:20:54.916Z,39.47
2022-11-10T02:23:43.125Z,39.28
2022-11-10T02:26:30.182Z,36.90
2022-11-10T02:29:16.040Z,38.05
2022-11-10T02:32:01.641Z,38.58
2022-11-10T02:34:47.468Z,38.83
2022-11-10T02:37:33.621Z,39.90
2022-11-10T02:40:19.266Z,39.70
2022-11-10T02:43:06.636Z,39.20
2022-11-10T02:45:52.547Z,41.00
2022-11-10T02:48:38.127Z,40.33
2022-11-10T02:51:23.820Z,38.65
2022-11-10T02:54:09.525Z,39.05
2022-11-10T02:56:55.028Z,39.10
2022-11-10T02:59:40.814Z,37.22
2022-11-10T03:02:31.178Z,38.47
2022-11-10T03:05:17.877Z,37.08
2022-11-10T03:08:04.101Z,36.42
2022-11-10T03:10:54.141Z,36.83
2022-11-10T03:13:58.999Z,37.35
2022-11-10T03:16:45.378Z,37.00
2022-11-10T03:19:31.088Z,36.75
2022-11-10T03:22:16.653Z,36.45
2022-11-10T03:25:02.512Z,37.03
2022-11-10T03:27:48.198Z,37.10
2022-11-10T03:30:34.000Z,37.53
2022-11-10T03:33:19.717Z,36.10
2022-11-10T03:36:06.391Z,35.10
2022-11-10T03:38:52.018Z,34.45
2022-11-10T03:41:38.006Z,35.08
2022-11-10T03:44:23.768Z,34.25
2022-11-10T03:47:09.468Z,36.53
2022-11-10T03:49:55.252Z,36.80
2022-11-10T03:52:42.561Z,39.03
2022-11-10T03:55:27.886Z,38.15
2022-11-10T03:58:13.522Z,37.97
2022-11-10T04:00:59.275Z,36.50
2022-11-10T04:03:50.187Z,34.53
2022-11-10T04:06:55.479Z,35.10
2022-11-10T04:09:41.278Z,35.10
2022-11-10T04:12:45.519Z,37.45
2022-11-10T04:15:43.435Z,54.38
2022-11-10T04:18:29.870Z,39.15
2022-11-10T04:21:15.814Z,50.90
2022-11-10T04:26:48.637Z,97.93
2022-11-10T04:29:34.471Z,81.82
2022-11-10T04:32:19.942Z,114.53
2022-11-10T04:35:05.539Z,149.27
2022-11-10T04:37:51.239Z,50.08
2022-11-10T04:40:36.786Z,68.22
2022-11-10T04:43:22.951Z,50.85
2022-11-10T04:46:20.091Z,38.65
2022-11-10T04:49:06.998Z,55.63
2022-11-10T04:51:52.678Z,46.97
2022-11-10T04:54:38.587Z,37.35
2022-11-10T04:57:24.221Z,41.78
2022-11-10T05:00:10.596Z,42.60
2022-11-10T05:02:58.425Z,39.05
2022-11-10T05:05:44.217Z,37.78
2022-11-10T05:08:29.838Z,38.15
2022-11-10T05:11:15.764Z,38.42
2022-11-10T05:14:01.220Z,35.95
2022-11-10T05:16:46.735Z,36.47
2022-11-10T05:19:32.353Z,38.17
2022-11-10T05:22:17.962Z,38.03
2022-11-10T05:25:03.718Z,38.25
2022-11-10T05:27:49.393Z,38.72
2022-11-10T05:30:35.669Z,40.67
2022-11-10T05:33:21.786Z,39.25
2022-11-10T05:36:08.571Z,37.72
2022-11-10T05:38:54.176Z,40.28
2022-11-10T05:41:40.530Z,41.33
2022-11-10T05:44:26.380Z,38.88
2022-11-10T05:47:16.042Z,38.55
2022-11-10T05:50:02.473Z,40.10
2022-11-10T05:52:51.305Z,35.60
2022-11-10T05:55:37.843Z,33.92
2022-11-10T05:58:23.307Z,33.80
2022-11-10T06:01:08.878Z,35.80
2022-11-10T06:03:54.500Z,37.17
2022-11-10T06:06:40.214Z,37.47
2022-11-10T06:09:25.696Z,38.20
2022-11-10T06:12:11.167Z,44.90
2022-11-10T06:14:59.645Z,43.80
2022-11-10T06:17:46.163Z,43.13
2022-11-10T06:20:32.252Z,40.90
2022-11-10T06:23:20.916Z,38.13
2022-11-10T06:26:06.868Z,38.97
2022-11-10T06:28:52.859Z,41.38
2022-11-10T06:31:38.540Z,47.72
2022-11-10T06:34:24.199Z,40.85
2022-11-10T06:37:10.012Z,37.55
2022-11-10T06:39:55.876Z,39.63
2022-11-10T06:42:41.558Z,37.10
2022-11-10T06:45:28.606Z,38.13
2022-11-10T06:48:14.388Z,34.53
2022-11-10T06:51:01.481Z,37.55
2022-11-10T06:53:47.650Z,39.33
2022-11-10T06:56:33.417Z,39.45
2022-11-10T06:59:18.871Z,41.53
2022-11-10T07:02:06.457Z,38.75
2022-11-10T07:04:52.150Z,38.20
2022-11-10T07:07:37.858Z,52.97
2022-11-10T07:13:09.970Z,41.63
2022-11-10T07:15:55.652Z,38.65
2022-11-10T07:18:41.154Z,67.53
2022-11-10T07:21:27.955Z,54.67
2022-11-10T07:24:16.591Z,45.65
2022-11-10T07:27:02.237Z,48.47
2022-11-10T07:29:48.260Z,59.53
2022-11-10T07:32:34.051Z,64.93
2022-11-10T07:35:19.653Z,45.33
2022-11-10T07:38:08.045Z,52.33
2022-11-10T07:40:54.116Z,50.15
2022-11-10T07:43:39.359Z,44.13
2022-11-10T07:46:25.276Z,40.05
2022-11-10T07:49:10.653Z,36.30
2022-11-10T07:51:56.777Z,32.45
2022-11-10T07:54:42.470Z,55.85
2022-11-10T07:57:28.436Z,45.05
2022-11-10T08:00:14.477Z,39.70
2022-11-10T08:03:09.945Z,35.28
2022-11-10T08:05:56.329Z,31.08
2022-11-10T08:08:42.304Z,29.67
2022-11-10T08:11:27.986Z,30.15
2022-11-10T08:14:13.728Z,29.55
2022-11-10T08:16:59.461Z,28.42
2022-11-10T08:19:45.682Z,33.22
2022-11-10T08:22:31.170Z,28.60
2022-11-10T08:25:16.805Z,43.45
2022-11-10T08:28:05.172Z,36.53
2022-11-10T08:30:51.013Z,38.17
2022-11-10T08:33:36.638Z,28.70
2022-11-10T08:36:22.625Z,30.80
2022-11-10T08:39:08.330Z,27.67
2022-11-10T08:41:54.274Z,23.25
2022-11-10T08:44:39.944Z,27.80
2022-11-10T08:47:25.497Z,32.35
2022-11-10T08:50:11.134Z,36.95
2022-11-10T08:53:07.904Z,31.45
2022-11-10T08:55:53.974Z,31.25
2022-11-10T08:58:48.540Z,31.65
2022-11-10T09:01:38.311Z,39.33
2022-11-10T09:04:24.003Z,36.15
2022-11-10T09:07:09.904Z,37.85
2022-11-10T09:10:06.601Z,31.38
2022-11-10T09:12:53.568Z,33.85
2022-11-10T09:15:40.318Z,28.05
2022-11-10T09:18:25.899Z,28.50
2022-11-10T09:21:12.915Z,26.08
2022-11-10T09:23:58.580Z,24.55
2022-11-10T09:26:47.562Z,28.02
2022-11-10T09:29:33.852Z,21.83
2022-11-10T09:32:19.684Z,23.80
2022-11-10T09:35:05.773Z,22.40
2022-11-10T09:37:51.435Z,20.08
2022-11-10T09:40:58.837Z,18.05
2022-11-10T09:44:12.143Z,22.00
2022-11-10T09:47:12.468Z,21.73
2022-11-10T09:50:02.986Z,25.38
2022-11-10T09:52:50.105Z,17.20
2022-11-10T09:55:50.989Z,21.98
2022-11-10T09:58:43.430Z,37.05
2022-11-10T10:01:50.081Z,28.85
2022-11-10T10:04:53.258Z,37.97
2022-11-10T10:08:06.691Z,38.28
2022-11-10T10:10:55.653Z,21.85
2022-11-10T10:14:09.179Z,27.17
2022-11-10T10:17:04.373Z,23.00
2022-11-10T10:20:02.832Z,16.02
2022-11-10T10:22:52.881Z,21.17
2022-11-10T10:25:41.457Z,24.52
2022-11-10T10:28:39.044Z,18.45
2022-11-10T10:31:30.352Z,17.25
2022-11-10T10:34:27.295Z,15.95
2022-11-10T10:37:32.677Z,17.42
2022-11-10T10:40:21.741Z,19.05
2022-11-10T10:43:07.618Z,13.27
2022-11-10T10:46:18.698Z,13.23
2022-11-10T10:49:27.847Z,12.23
2022-11-10T10:52:24.812Z,11.25
2022-11-10T10:55:13.098Z,10.88
2022-11-10T10:58:21.413Z,13.65
2022-11-10T11:01:16.880Z,11.50
2022-11-10T11:04:25.128Z,9.03
2022-11-10T11:07:23.179Z,11.65
2022-11-10T11:10:22.948Z,10.25
2022-11-10T11:13:20.808Z,9.05
2022-11-10T11:16:09.149Z,10.75
2022-11-10T11:18:55.104Z,10.65
2022-11-10T11:21:52.600Z,12.80
2022-11-10T11:24:42.641Z,8.65
2022-11-10T11:27:58.673Z,11.52
2022-11-10T11:34:10.626Z,9.52
2022-11-10T11:37:00.801Z,21.73
2022-11-10T11:40:00.187Z,10.25
2022-11-10T11:43:06.990Z,8.50
2022-11-10T11:46:14.962Z,11.20
2022-11-10T11:49:38.184Z,8.40
2022-11-10T11:52:54.347Z,9.60
2022-11-10T11:55:58.493Z,13.60
2022-11-10T11:58:51.604Z,8.40
2022-11-10T12:02:24.628Z,9.82
2022-11-10T12:05:29.344Z,10.02
2022-11-10T12:08:23.922Z,8.68
2022-11-10T12:11:34.582Z,8.55
2022-11-10T12:14:42.989Z,7.05
2022-11-10T12:17:53.442Z,7.20
2022-11-10T12:20:47.873Z,7.47
2022-11-10T12:23:47.973Z,8.77
2022-11-10T12:26:43.422Z,9.40
2022-11-10T12:29:33.592Z,8.45
2022-11-10T12:32:40.071Z,13.38
2022-11-10T12:35:34.051Z,7.65
2022-11-10T12:38:46.364Z,7.07
2022-11-10T12:41:46.301Z,8.85
2022-11-10T12:44:59.732Z,7.88
2022-11-10T12:47:47.174Z,12.73
2022-11-10T12:50:35.715Z,14.27
2022-11-10T12:53:30.476Z,10.10
2022-11-10T12:56:30.169Z,11.30
2022-11-10T12:59:24.564Z,12.95
2022-11-10T13:02:16.699Z,9.73
2022-11-10T13:05:14.322Z,14.82
2022-11-10T13:08:25.524Z,14.77
2022-11-10T13:11:11.301Z,10.45
2022-11-10T13:13:59.907Z,10.80
2022-11-10T13:16:54.593Z,10.40
2022-11-10T13:19:43.771Z,11.23
2022-11-10T13:22:41.061Z,11.45
2022-11-10T13:25:36.608Z,12.27
2022-11-10T13:28:46.986Z,6.60
2022-11-10T13:31:32.739Z,4.70
2022-11-10T13:34:21.437Z,5.40
2022-11-10T13:37:34.745Z,5.25
2022-11-10T13:40:23.377Z,5.05
2022-11-10T13:43:25.725Z,4.45
2022-11-10T13:46:11.340Z,5.85
2022-11-10T13:49:21.658Z,6.45
2022-11-10T13:52:27.599Z,6.70
2022-11-10T13:55:22.780Z,10.80
2022-11-10T13:58:18.839Z,8.63
2022-11-10T14:01:30.314Z,7.97
2022-11-10T14:04:45.213Z,9.77
2022-11-10T14:07:42.983Z,7.25
2022-11-10T14:10:49.522Z,6.57
2022-11-10T14:13:41.719Z,8.75
2022-11-10T14:16:31.608Z,6.53
2022-11-10T14:19:40.088Z,7.32
2022-11-10T14:22:44.808Z,6.28
2022-11-10T14:25:41.141Z,6.90
2022-11-10T14:28:32.861Z,7.80
2022-11-10T14:31:24.881Z,6.85
2022-11-10T14:34:15.661Z,7.78
2022-11-10T14:37:03.427Z,7.13
2022-11-10T14:39:52.149Z,11.15
2022-11-10T14:42:39.269Z,13.45
2022-11-10T14:45:29.441Z,13.02
2022-11-10T14:48:20.961Z,8.95
2022-11-10T14:51:19.459Z,11.18
2022-11-10T14:54:10.353Z,9.68
2022-11-10T14:56:57.104Z,8.82
2022-11-10T14:59:42.806Z,14.98
2022-11-10T15:02:28.565Z,25.90
2022-11-10T15:05:15.754Z,35.33
2022-11-10T15:08:04.075Z,34.83
2022-11-10T15:10:53.219Z,17.65
2022-11-10T15:13:39.960Z,13.23
2022-11-10T15:16:39.820Z,13.02
2022-11-10T15:19:32.173Z,12.10
2022-11-10T15:22:23.688Z,11.50
2022-11-10T15:25:15.659Z,16.05
2022-11-10T15:28:06.761Z,11.15
2022-11-10T15:30:56.404Z,18.30
2022-11-10T15:33:47.132Z,21.98
2022-11-10T15:36:35.603Z,24.63
2022-11-10T15:39:26.673Z,23.98
2022-11-10T15:42:21.919Z,25.15
2022-11-10T15:45:07.914Z,26.63
2022-11-10T15:47:53.421Z,28.83
2022-11-10T15:50:39.624Z,33.20
2022-11-10T15:53:28.088Z,49.13
2022-11-10T15:56:20.460Z,39.53
2022-11-10T15:59:06.129Z,35.83
2022-11-10T16:01:51.937Z,33.22
2022-11-10T16:04:37.338Z,26.30
2022-11-10T16:07:23.644Z,35.45
2022-11-10T16:10:09.453Z,52.45
2022-11-10T16:12:55.418Z,41.35
2022-11-10T16:15:44.621Z,43.05
2022-11-10T16:18:31.173Z,47.10
2022-11-10T16:21:19.951Z,44.70
2022-11-10T16:24:06.001Z,48.63
2022-11-10T16:26:51.365Z,46.30
2022-11-10T16:29:37.958Z,49.42
2022-11-10T16:32:24.016Z,39.60
2022-11-10T16:35:14.118Z,35.25
2022-11-10T16:37:59.481Z,39.08
2022-11-10T16:40:53.204Z,39.30
2022-11-10T16:43:40.860Z,35.53
2022-11-10T16:46:29.775Z,28.65
2022-11-10T16:49:28.111Z,23.27
2022-11-10T16:52:15.940Z,23.90
2022-11-10T16:55:01.546Z,26.35
2022-11-10T16:57:48.407Z,27.33
2022-11-10T17:00:34.225Z,27.30
2022-11-10T17:03:50.776Z,26.77
2022-11-10T17:06:36.577Z,33.72
2022-11-10T17:09:25.630Z,30.20
2022-11-10T17:12:13.465Z,37.55
2022-11-10T17:14:59.012Z,42.17
2022-11-10T17:17:47.122Z,51.17
2022-11-10T17:20:36.213Z,24.40
2022-11-10T17:23:24.333Z,22.88
2022-11-10T17:26:15.464Z,26.13
2022-11-10T17:29:01.101Z,33.40
2022-11-10T17:31:47.442Z,29.70
2022-11-10T17:34:33.089Z,27.20
2022-11-10T17:37:19.140Z,25.67
2022-11-10T17:40:26.303Z,23.25
2022-11-10T17:43:13.626Z,24.77
2022-11-10T17:45:59.200Z,27.50
2022-11-10T17:48:46.924Z,28.08
2022-11-10T17:51:33.909Z,32.53
2022-11-10T17:54:19.768Z,30.33
2022-11-10T17:59:51.898Z,41.78
2022-11-10T18:02:37.304Z,29.17
2022-11-10T18:05:23.339Z,25.13
2022-11-10T18:08:11.714Z,26.95
2022-11-10T18:11:00.750Z,33.95
2022-11-10T18:13:46.348Z,23.90
2022-11-10T18:16:32.841Z,34.10
2022-11-10T18:19:20.606Z,33.20
2022-11-10T18:22:08.267Z,56.80
2022-11-10T18:24:53.839Z,71.00
2022-11-10T18:27:40.218Z,59.17
2022-11-10T18:30:25.594Z,59.78
2022-11-10T18:33:12.652Z,47.83
2022-11-10T18:36:01.062Z,34.00
2022-11-10T18:38:47.312Z,29.88
2022-11-10T18:41:52.330Z,44.25
2022-11-10T18:44:38.643Z,49.00
2022-11-10T18:47:24.218Z,41.78
2022-11-10T18:50:10.215Z,36.15
2022-11-10T18:52:55.829Z,37.35
2022-11-10T18:55:45.413Z,31.27
2022-11-10T18:58:31.237Z,38.35
2022-11-10T19:01:17.283Z,37.97
2022-11-10T19:04:03.112Z,40.72
2022-11-10T19:06:48.880Z,45.78
2022-11-10T19:09:34.436Z,70.68
2022-11-10T19:12:26.399Z,48.75
2022-11-10T19:15:12.691Z,52.47
2022-11-10T19:17:58.332Z,39.83
2022-11-10T19:20:43.924Z,37.20
2022-11-10T19:23:29.722Z,36.42
2022-11-10T19:26:22.849Z,33.35
2022-11-10T19:29:09.403Z,28.20
2022-11-10T19:31:55.186Z,33.22
2022-11-10T19:34:40.980Z,35.55
2022-11-10T19:40:19.567Z,33.58
2022-11-10T19:43:05.471Z,53.50
2022-11-10T19:45:51.516Z,50.58
2022-11-10T19:48:37.306Z,52.90
2022-11-10T19:51:24.734Z,44.85
2022-11-10T19:54:15.762Z,37.33
2022-11-10T19:57:01.905Z,41.13
2022-11-10T19:59:49.473Z,41.22
2022-11-10T20:02:35.585Z,42.05
2022-11-10T20:05:22.212Z,85.63
2022-11-10T20:08:12.100Z,57.13
2022-11-10T20:11:12.291Z,57.33
2022-11-10T20:14:02.054Z,56.00
2022-11-10T20:16:47.567Z,39.70
2022-11-10T20:19:40.804Z,32.72
2022-11-10T20:22:27.255Z,28.02
2022-11-10T20:25:13.358Z,25.15
2022-11-10T20:28:03.413Z,22.65
2022-11-10T20:30:49.180Z,28.45
2022-11-10T20:33:35.835Z,28.35
2022-11-10T20:36:27.596Z,34.60
2022-11-10T20:39:13.465Z,38.20
2022-11-10T20:42:03.362Z,34.58
2022-11-10T20:44:49.038Z,36.72
2022-11-10T20:47:34.891Z,35.83
2022-11-10T20:50:24.634Z,35.45
2022-11-10T20:53:10.810Z,38.15
2022-11-10T20:56:02.633Z,39.08
2022-11-10T20:58:49.163Z,37.65
2022-11-10T21:01:37.919Z,43.20
2022-11-10T21:04:24.561Z,40.17
2022-11-10T21:07:10.301Z,45.88
2022-11-10T21:09:56.632Z,43.35
2022-11-10T21:12:51.339Z,42.72
2022-11-10T21:15:39.692Z,41.33
2022-11-10T21:18:27.923Z,35.28
2022-11-10T21:21:26.310Z,43.45
2022-11-10T21:24:12.038Z,40.88
2022-11-10T21:26:58.532Z,32.40
2022-11-10T21:29:44.648Z,27.83
2022-11-10T21:32:30.699Z,37.65
2022-11-10T21:35:16.782Z,33.45
2022-11-10T21:38:03.495Z,29.70
2022-11-10T21:40:49.196Z,37.58
2022-11-10T21:43:35.430Z,42.38
2022-11-10T21:46:21.026Z,44.45
2022-11-10T21:49:08.301Z,43.00
2022-11-10T21:51:54.103Z,47.22
2022-11-10T21:54:42.861Z,43.03
2022-11-10T21:57:28.466Z,53.45
2022-11-10T22:00:14.713Z,44.78
2022-11-10T22:03:01.479Z,42.00
2022-11-10T22:05:47.096Z,41.20
2022-11-10T22:08:34.037Z,37.10
2022-11-10T22:11:40.101Z,39.92
2022-11-10T22:14:44.554Z,44.25
2022-11-10T22:17:49.074Z,46.22
2022-11-10T22:20:34.647Z,53.22
2022-11-10T22:23:40.286Z,43.38
2022-11-10T22:26:25.826Z,40.30
2022-11-10T22:29:11.808Z,36.88
2022-11-10T22:31:58.852Z,43.70
2022-11-10T22:34:45.102Z,37.22
2022-11-10T22:37:33.072Z,35.60
2022-11-10T22:40:38.548Z,30.50
2022-11-10T22:43:46.905Z,31.52
2022-11-10T22:46:45.867Z,32.67
2022-11-10T22:49:31.235Z,30.95
2022-11-10T22:52:17.076Z,27.55
2022-11-10T22:55:02.780Z,26.80
2022-11-10T22:57:51.426Z,26.00
2022-11-10T23:00:37.272Z,26.23
2022-11-10T23:03:23.388Z,27.25
2022-11-10T23:06:10.194Z,27.98
2022-11-10T23:08:57.275Z,25.58
2022-11-10T23:11:42.441Z,26.65
2022-11-10T23:14:28.018Z,29.75
2022-11-10T23:17:13.421Z,27.17
2022-11-10T23:19:59.238Z,29.80
2022-11-10T23:22:44.918Z,32.28
2022-11-10T23:25:30.724Z,31.38
2022-11-10T23:28:16.469Z,32.13
2022-11-10T23:31:09.057Z,27.50
2022-11-10T23:33:56.797Z,27.05
2022-11-10T23:36:42.692Z,28.15
2022-11-10T23:42:13.908Z,26.00
2022-11-10T23:44:59.540Z,27.98
2022-11-10T23:47:45.196Z,27.08
2022-11-10T23:50:30.761Z,27.05
2022-11-10T23:53:17.510Z,26.73
2022-11-10T23:56:06.144Z,25.30
2022-11-10T23:58:51.705Z,24.55
